sensor_id;sensor_type;location;lat;lon;timestamp;temperature;humidity
49184;DHT22;35021;49.214;12.270;2022-12-20T00:01:24;18.60;28.90
49184;DHT22;35021;49.214;12.270;2022-12-20T00:03:53;18.60;28.90
49184;DHT22;35021;49.214;12.270;2022-12-20T00:06:21;18.60;28.90
49184;DHT22;35021;49.214;12.270;2022-12-20T00:08:56;18.60;29.50
49184;DHT22;35021;49.214;12.270;2022-12-20T00:11:24;18.60;28.80
49184;DHT22;35021;49.214;12.270;2022-12-20T00:13:51;18.60;28.90
49184;DHT22;35021;49.214;12.270;2022-12-20T00:16:22;18.60;28.80
49184;DHT22;35021;49.214;12.270;2022-12-20T00:18:52;18.60;28.80
49184;DHT22;35021;49.214;12.270;2022-12-20T00:21:19;18.60;28.80
49184;DHT22;35021;49.214;12.270;2022-12-20T00:23:46;18.60;28.80
49184;DHT22;35021;49.214;12.270;2022-12-20T00:26:16;18.60;28.90
49184;DHT22;35021;49.214;12.270;2022-12-20T00:28:44;18.60;28.90
49184;DHT22;35021;49.214;12.270;2022-12-20T00:31:17;18.60;29.00
49184;DHT22;35021;49.214;12.270;2022-12-20T00:33:46;18.60;29.60
49184;DHT22;35021;49.214;12.270;2022-12-20T00:36:13;18.50;29.00
49184;DHT22;35021;49.214;12.270;2022-12-20T00:38:41;18.50;29.00
49184;DHT22;35021;49.214;12.270;2022-12-20T00:41:12;18.50;29.00
49184;DHT22;35021;49.214;12.270;2022-12-20T00:43:40;18.50;29.00
49184;DHT22;35021;49.214;12.270;2022-12-20T00:46:09;18.50;29.00
49184;DHT22;35021;49.214;12.270;2022-12-20T00:48:36;18.50;29.10
49184;DHT22;35021;49.214;12.270;2022-12-20T00:51:06;18.50;29.10
49184;DHT22;35021;49.214;12.270;2022-12-20T00:53:34;18.50;29.10
49184;DHT22;35021;49.214;12.270;2022-12-20T00:56:02;18.50;29.10
49184;DHT22;35021;49.214;12.270;2022-12-20T00:58:31;18.50;29.20
49184;DHT22;35021;49.214;12.270;2022-12-20T01:00:58;18.40;29.20
49184;DHT22;35021;49.214;12.270;2022-12-20T01:03:25;18.50;29.20
49184;DHT22;35021;49.214;12.270;2022-12-20T01:08:21;18.40;29.20
49184;DHT22;35021;49.214;12.270;2022-12-20T01:11:02;18.40;29.20
49184;DHT22;35021;49.214;12.270;2022-12-20T01:13:30;18.40;29.20
49184;DHT22;35021;49.214;12.270;2022-12-20T01:18:31;18.40;29.20
49184;DHT22;35021;49.214;12.270;2022-12-20T01:21:04;18.40;29.20
49184;DHT22;35021;49.214;12.270;2022-12-20T01:23:31;18.40;29.20
49184;DHT22;35021;49.214;12.270;2022-12-20T01:26:00;18.40;29.20
49184;DHT22;35021;49.214;12.270;2022-12-20T01:28:28;18.40;29.20
49184;DHT22;35021;49.214;12.270;2022-12-20T01:30:54;18.40;29.20
49184;DHT22;35021;49.214;12.270;2022-12-20T01:33:22;18.40;29.20
49184;DHT22;35021;49.214;12.270;2022-12-20T01:36:00;18.40;29.20
49184;DHT22;35021;49.214;12.270;2022-12-20T01:38:28;18.40;29.20
49184;DHT22;35021;49.214;12.270;2022-12-20T01:40:55;18.40;29.20
49184;DHT22;35021;49.214;12.270;2022-12-20T01:43:24;18.40;29.20
49184;DHT22;35021;49.214;12.270;2022-12-20T01:45:51;18.40;29.30
49184;DHT22;35021;49.214;12.270;2022-12-20T01:48:24;18.30;29.30
49184;DHT22;35021;49.214;12.270;2022-12-20T01:50:52;18.30;29.30
49184;DHT22;35021;49.214;12.270;2022-12-20T01:53:22;18.30;29.30
49184;DHT22;35021;49.214;12.270;2022-12-20T01:55:49;18.30;29.40
49184;DHT22;35021;49.214;12.270;2022-12-20T01:58:17;18.30;29.40
49184;DHT22;35021;49.214;12.270;2022-12-20T02:00:45;18.30;29.40
49184;DHT22;35021;49.214;12.270;2022-12-20T02:03:13;18.30;29.40
49184;DHT22;35021;49.214;12.270;2022-12-20T02:05:43;18.40;29.40
49184;DHT22;35021;49.214;12.270;2022-12-20T02:08:15;18.40;29.40
49184;DHT22;35021;49.214;12.270;2022-12-20T02:11:05;18.50;29.40
49184;DHT22;35021;49.214;12.270;2022-12-20T02:13:44;18.60;29.30
49184;DHT22;35021;49.214;12.270;2022-12-20T02:16:19;18.60;29.30
49184;DHT22;35021;49.214;12.270;2022-12-20T02:18:58;18.70;29.20
49184;DHT22;35021;49.214;12.270;2022-12-20T02:30:21;18.80;29.00
49184;DHT22;35021;49.214;12.270;2022-12-20T02:33:12;18.80;29.00
49184;DHT22;35021;49.214;12.270;2022-12-20T02:35:39;18.80;29.00
49184;DHT22;35021;49.214;12.270;2022-12-20T02:38:32;18.80;29.00
49184;DHT22;35021;49.214;12.270;2022-12-20T02:41:06;18.80;29.00
49184;DHT22;35021;49.214;12.270;2022-12-20T02:43:35;18.80;29.00
49184;DHT22;35021;49.214;12.270;2022-12-20T02:46:25;18.80;29.00
49184;DHT22;35021;49.214;12.270;2022-12-20T02:48:55;18.90;29.00
49184;DHT22;35021;49.214;12.270;2022-12-20T02:51:25;18.90;28.90
49184;DHT22;35021;49.214;12.270;2022-12-20T02:53:53;19.00;28.90
49184;DHT22;35021;49.214;12.270;2022-12-20T02:56:33;19.00;28.90
49184;DHT22;35021;49.214;12.270;2022-12-20T02:59:14;19.00;28.90
49184;DHT22;35021;49.214;12.270;2022-12-20T03:01:49;19.10;28.90
49184;DHT22;35021;49.214;12.270;2022-12-20T03:04:19;19.00;28.80
49184;DHT22;35021;49.214;12.270;2022-12-20T03:07:05;19.00;28.80
49184;DHT22;35021;49.214;12.270;2022-12-20T03:09:37;18.90;28.90
49184;DHT22;35021;49.214;12.270;2022-12-20T03:12:06;18.90;28.90
49184;DHT22;35021;49.214;12.270;2022-12-20T03:14:33;18.80;29.40
49184;DHT22;35021;49.214;12.270;2022-12-20T03:17:00;18.80;28.90
49184;DHT22;35021;49.214;12.270;2022-12-20T03:19:28;18.70;29.00
49184;DHT22;35021;49.214;12.270;2022-12-20T03:21:55;18.70;29.00
49184;DHT22;35021;49.214;12.270;2022-12-20T03:24:22;18.70;29.00
49184;DHT22;35021;49.214;12.270;2022-12-20T03:26:49;18.70;29.00
49184;DHT22;35021;49.214;12.270;2022-12-20T03:29:16;18.80;29.00
49184;DHT22;35021;49.214;12.270;2022-12-20T03:31:42;18.80;28.90
49184;DHT22;35021;49.214;12.270;2022-12-20T03:34:09;18.80;28.90
49184;DHT22;35021;49.214;12.270;2022-12-20T03:36:36;18.80;28.90
49184;DHT22;35021;49.214;12.270;2022-12-20T03:39:03;18.90;28.90
49184;DHT22;35021;49.214;12.270;2022-12-20T03:41:30;18.90;28.80
49184;DHT22;35021;49.214;12.270;2022-12-20T03:43:58;18.90;28.90
49184;DHT22;35021;49.214;12.270;2022-12-20T03:46:24;18.80;28.90
49184;DHT22;35021;49.214;12.270;2022-12-20T03:48:51;18.80;28.90
49184;DHT22;35021;49.214;12.270;2022-12-20T03:51:18;18.80;29.00
49184;DHT22;35021;49.214;12.270;2022-12-20T03:53:45;18.70;29.00
49184;DHT22;35021;49.214;12.270;2022-12-20T03:56:12;18.70;29.10
49184;DHT22;35021;49.214;12.270;2022-12-20T03:58:39;18.70;29.00
49184;DHT22;35021;49.214;12.270;2022-12-20T04:01:22;18.70;29.00
49184;DHT22;35021;49.214;12.270;2022-12-20T04:03:49;18.70;29.00
49184;DHT22;35021;49.214;12.270;2022-12-20T04:06:17;18.70;28.90
49184;DHT22;35021;49.214;12.270;2022-12-20T04:08:44;18.80;28.90
49184;DHT22;35021;49.214;12.270;2022-12-20T04:11:11;18.80;28.90
49184;DHT22;35021;49.214;12.270;2022-12-20T04:13:50;18.80;28.90
49184;DHT22;35021;49.214;12.270;2022-12-20T04:16:23;18.80;28.80
49184;DHT22;35021;49.214;12.270;2022-12-20T04:18:51;18.80;28.80
49184;DHT22;35021;49.214;12.270;2022-12-20T04:21:30;18.80;28.80
49184;DHT22;35021;49.214;12.270;2022-12-20T04:23:58;18.80;28.80
49184;DHT22;35021;49.214;12.270;2022-12-20T04:26:26;18.90;28.80
49184;DHT22;35021;49.214;12.270;2022-12-20T04:28:53;18.90;28.80
49184;DHT22;35021;49.214;12.270;2022-12-20T04:31:19;18.80;28.80
49184;DHT22;35021;49.214;12.270;2022-12-20T04:33:50;18.80;28.90
49184;DHT22;35021;49.214;12.270;2022-12-20T04:36:17;18.80;28.90
49184;DHT22;35021;49.214;12.270;2022-12-20T04:38:44;18.70;28.90
49184;DHT22;35021;49.214;12.270;2022-12-20T04:41:11;18.70;29.00
49184;DHT22;35021;49.214;12.270;2022-12-20T04:43:53;18.60;29.00
49184;DHT22;35021;49.214;12.270;2022-12-20T04:46:21;18.60;29.00
49184;DHT22;35021;49.214;12.270;2022-12-20T04:48:48;18.60;29.00
49184;DHT22;35021;49.214;12.270;2022-12-20T04:51:25;18.60;29.00
49184;DHT22;35021;49.214;12.270;2022-12-20T04:53:53;18.70;29.00
49184;DHT22;35021;49.214;12.270;2022-12-20T04:56:25;18.70;29.00
49184;DHT22;35021;49.214;12.270;2022-12-20T04:58:55;18.70;29.00
49184;DHT22;35021;49.214;12.270;2022-12-20T05:01:22;18.70;29.00
49184;DHT22;35021;49.214;12.270;2022-12-20T05:03:50;18.80;29.00
49184;DHT22;35021;49.214;12.270;2022-12-20T05:06:17;18.80;28.90
49184;DHT22;35021;49.214;12.270;2022-12-20T05:08:44;18.80;28.90
49184;DHT22;35021;49.214;12.270;2022-12-20T05:11:11;18.80;28.90
49184;DHT22;35021;49.214;12.270;2022-12-20T05:13:38;18.80;28.90
49184;DHT22;35021;49.214;12.270;2022-12-20T05:16:05;18.70;28.90
49184;DHT22;35021;49.214;12.270;2022-12-20T05:18:32;18.70;29.00
49184;DHT22;35021;49.214;12.270;2022-12-20T05:21:00;18.70;29.10
49184;DHT22;35021;49.214;12.270;2022-12-20T05:23:46;18.60;29.10
49184;DHT22;35021;49.214;12.270;2022-12-20T05:26:35;18.60;29.20
49184;DHT22;35021;49.214;12.270;2022-12-20T05:29:04;18.60;29.20
49184;DHT22;35021;49.214;12.270;2022-12-20T05:31:31;18.60;29.30
49184;DHT22;35021;49.214;12.270;2022-12-20T05:33:58;18.50;29.20
49184;DHT22;35021;49.214;12.270;2022-12-20T05:36:25;18.60;29.20
49184;DHT22;35021;49.214;12.270;2022-12-20T05:38:52;18.60;29.30
49184;DHT22;35021;49.214;12.270;2022-12-20T05:41:29;18.60;29.30
49184;DHT22;35021;49.214;12.270;2022-12-20T05:43:56;18.70;29.20
49184;DHT22;35021;49.214;12.270;2022-12-20T05:46:22;18.70;29.20
49184;DHT22;35021;49.214;12.270;2022-12-20T05:48:49;18.70;29.20
49184;DHT22;35021;49.214;12.270;2022-12-20T05:51:16;18.80;29.20
49184;DHT22;35021;49.214;12.270;2022-12-20T05:53:43;18.80;29.20
49184;DHT22;35021;49.214;12.270;2022-12-20T05:56:10;18.80;29.20
49184;DHT22;35021;49.214;12.270;2022-12-20T05:58:37;18.80;29.30
49184;DHT22;35021;49.214;12.270;2022-12-20T06:01:06;18.70;29.20
49184;DHT22;35021;49.214;12.270;2022-12-20T06:03:33;18.70;29.30
49184;DHT22;35021;49.214;12.270;2022-12-20T06:06:00;18.60;29.30
49184;DHT22;35021;49.214;12.270;2022-12-20T06:08:27;18.60;29.40
49184;DHT22;35021;49.214;12.270;2022-12-20T06:10:54;18.60;29.40
49184;DHT22;35021;49.214;12.270;2022-12-20T06:13:21;18.60;29.40
49184;DHT22;35021;49.214;12.270;2022-12-20T06:15:48;18.60;29.40
49184;DHT22;35021;49.214;12.270;2022-12-20T06:18:15;18.70;29.40
49184;DHT22;35021;49.214;12.270;2022-12-20T06:20:42;18.70;29.30
49184;DHT22;35021;49.214;12.270;2022-12-20T06:23:08;18.80;29.40
49184;DHT22;35021;49.214;12.270;2022-12-20T06:25:35;18.80;29.30
49184;DHT22;35021;49.214;12.270;2022-12-20T06:28:03;18.80;29.20
49184;DHT22;35021;49.214;12.270;2022-12-20T06:30:31;18.90;29.20
49184;DHT22;35021;49.214;12.270;2022-12-20T06:33:01;18.90;29.20
49184;DHT22;35021;49.214;12.270;2022-12-20T06:35:28;18.90;29.20
49184;DHT22;35021;49.214;12.270;2022-12-20T06:37:56;18.80;29.20
49184;DHT22;35021;49.214;12.270;2022-12-20T06:40:23;18.80;29.20
49184;DHT22;35021;49.214;12.270;2022-12-20T06:42:50;18.80;29.30
49184;DHT22;35021;49.214;12.270;2022-12-20T06:45:17;18.70;29.30
49184;DHT22;35021;49.214;12.270;2022-12-20T06:47:44;18.70;29.40
49184;DHT22;35021;49.214;12.270;2022-12-20T06:50:10;18.70;29.40
49184;DHT22;35021;49.214;12.270;2022-12-20T06:52:37;18.70;29.40
49184;DHT22;35021;49.214;12.270;2022-12-20T06:55:04;18.70;29.40
49184;DHT22;35021;49.214;12.270;2022-12-20T06:57:31;18.70;29.40
49184;DHT22;35021;49.214;12.270;2022-12-20T06:59:58;18.70;29.40
49184;DHT22;35021;49.214;12.270;2022-12-20T07:02:25;18.70;29.40
49184;DHT22;35021;49.214;12.270;2022-12-20T07:04:54;18.80;29.40
49184;DHT22;35021;49.214;12.270;2022-12-20T07:07:21;18.80;29.90
49184;DHT22;35021;49.214;12.270;2022-12-20T07:09:48;18.90;29.30
49184;DHT22;35021;49.214;12.270;2022-12-20T07:12:14;18.90;29.30
49184;DHT22;35021;49.214;12.270;2022-12-20T07:14:41;18.90;29.30
49184;DHT22;35021;49.214;12.270;2022-12-20T07:17:09;18.90;29.20
49184;DHT22;35021;49.214;12.270;2022-12-20T07:19:36;18.90;29.20
49184;DHT22;35021;49.214;12.270;2022-12-20T07:22:03;18.90;29.20
49184;DHT22;35021;49.214;12.270;2022-12-20T07:24:32;18.90;29.20
49184;DHT22;35021;49.214;12.270;2022-12-20T07:26:59;18.90;29.30
49184;DHT22;35021;49.214;12.270;2022-12-20T07:29:27;18.90;29.30
49184;DHT22;35021;49.214;12.270;2022-12-20T07:31:53;18.90;29.30
49184;DHT22;35021;49.214;12.270;2022-12-20T07:34:20;18.90;29.30
49184;DHT22;35021;49.214;12.270;2022-12-20T07:36:47;18.80;29.20
49184;DHT22;35021;49.214;12.270;2022-12-20T07:39:14;18.90;29.20
49184;DHT22;35021;49.214;12.270;2022-12-20T07:41:41;18.90;29.30
49184;DHT22;35021;49.214;12.270;2022-12-20T07:44:08;18.90;29.20
49184;DHT22;35021;49.214;12.270;2022-12-20T07:46:35;18.90;29.20
49184;DHT22;35021;49.214;12.270;2022-12-20T07:49:02;18.90;29.20
49184;DHT22;35021;49.214;12.270;2022-12-20T07:51:37;19.00;29.20
49184;DHT22;35021;49.214;12.270;2022-12-20T07:54:20;19.00;29.20
49184;DHT22;35021;49.214;12.270;2022-12-20T07:56:51;19.00;29.10
49184;DHT22;35021;49.214;12.270;2022-12-20T07:59:26;19.10;29.20
49184;DHT22;35021;49.214;12.270;2022-12-20T08:01:55;19.00;29.20
49184;DHT22;35021;49.214;12.270;2022-12-20T08:04:30;19.00;29.20
49184;DHT22;35021;49.214;12.270;2022-12-20T08:06:58;18.90;29.30
49184;DHT22;35021;49.214;12.270;2022-12-20T08:09:29;18.80;29.30
49184;DHT22;35021;49.214;12.270;2022-12-20T08:11:57;18.80;29.40
49184;DHT22;35021;49.214;12.270;2022-12-20T08:14:25;18.70;29.50
49184;DHT22;35021;49.214;12.270;2022-12-20T08:16:51;18.70;29.50
49184;DHT22;35021;49.214;12.270;2022-12-20T08:19:18;18.70;29.60
49184;DHT22;35021;49.214;12.270;2022-12-20T08:21:45;18.70;29.60
49184;DHT22;35021;49.214;12.270;2022-12-20T08:24:12;18.80;29.60
49184;DHT22;35021;49.214;12.270;2022-12-20T08:26:40;18.80;29.60
49184;DHT22;35021;49.214;12.270;2022-12-20T08:29:07;18.80;29.60
49184;DHT22;35021;49.214;12.270;2022-12-20T08:31:38;18.80;29.60
49184;DHT22;35021;49.214;12.270;2022-12-20T08:34:13;18.90;29.60
49184;DHT22;35021;49.214;12.270;2022-12-20T08:36:40;18.90;29.60
49184;DHT22;35021;49.214;12.270;2022-12-20T08:39:07;18.90;29.60
49184;DHT22;35021;49.214;12.270;2022-12-20T08:41:34;18.90;29.70
49184;DHT22;35021;49.214;12.270;2022-12-20T08:44:04;18.80;29.60
49184;DHT22;35021;49.214;12.270;2022-12-20T08:46:31;18.80;29.70
49184;DHT22;35021;49.214;12.270;2022-12-20T08:48:58;18.80;29.80
49184;DHT22;35021;49.214;12.270;2022-12-20T08:51:25;18.70;29.80
49184;DHT22;35021;49.214;12.270;2022-12-20T08:53:53;18.80;29.80
49184;DHT22;35021;49.214;12.270;2022-12-20T08:56:20;18.70;29.80
49184;DHT22;35021;49.214;12.270;2022-12-20T08:58:47;18.70;29.80
49184;DHT22;35021;49.214;12.270;2022-12-20T09:01:17;18.80;29.80
49184;DHT22;35021;49.214;12.270;2022-12-20T09:03:45;18.80;29.80
49184;DHT22;35021;49.214;12.270;2022-12-20T09:06:18;18.80;29.80
49184;DHT22;35021;49.214;12.270;2022-12-20T09:08:46;18.80;29.80
49184;DHT22;35021;49.214;12.270;2022-12-20T09:11:19;18.90;29.90
49184;DHT22;35021;49.214;12.270;2022-12-20T09:13:48;18.90;30.40
49184;DHT22;35021;49.214;12.270;2022-12-20T09:16:17;18.90;29.80
49184;DHT22;35021;49.214;12.270;2022-12-20T09:18:48;18.90;29.80
49184;DHT22;35021;49.214;12.270;2022-12-20T09:21:15;18.90;29.80
49184;DHT22;35021;49.214;12.270;2022-12-20T09:23:42;18.90;29.80
49184;DHT22;35021;49.214;12.270;2022-12-20T09:26:13;18.90;29.90
49184;DHT22;35021;49.214;12.270;2022-12-20T09:28:41;18.90;29.90
49184;DHT22;35021;49.214;12.270;2022-12-20T09:31:27;18.80;29.90
49184;DHT22;35021;49.214;12.270;2022-12-20T09:33:56;18.80;30.00
49184;DHT22;35021;49.214;12.270;2022-12-20T09:36:24;18.80;30.00
49184;DHT22;35021;49.214;12.270;2022-12-20T09:38:53;18.70;30.00
49184;DHT22;35021;49.214;12.270;2022-12-20T09:41:38;18.80;30.00
49184;DHT22;35021;49.214;12.270;2022-12-20T09:44:26;18.80;30.00
49184;DHT22;35021;49.214;12.270;2022-12-20T09:46:56;18.80;30.00
49184;DHT22;35021;49.214;12.270;2022-12-20T09:49:32;18.90;30.00
49184;DHT22;35021;49.214;12.270;2022-12-20T09:52:17;18.90;30.00
49184;DHT22;35021;49.214;12.270;2022-12-20T09:55:05;18.90;30.70
49184;DHT22;35021;49.214;12.270;2022-12-20T10:00:15;19.00;30.00
49184;DHT22;35021;49.214;12.270;2022-12-20T10:02:42;19.00;30.00
49184;DHT22;35021;49.214;12.270;2022-12-20T10:08:48;19.10;30.00
49184;DHT22;35021;49.214;12.270;2022-12-20T10:20:08;19.10;30.00
49184;DHT22;35021;49.214;12.270;2022-12-20T10:22:46;19.10;30.00
49184;DHT22;35021;49.214;12.270;2022-12-20T10:25:20;19.10;30.00
49184;DHT22;35021;49.214;12.270;2022-12-20T10:27:50;19.10;30.00
49184;DHT22;35021;49.214;12.270;2022-12-20T10:30:21;19.10;30.00
49184;DHT22;35021;49.214;12.270;2022-12-20T10:32:51;19.10;30.00
49184;DHT22;35021;49.214;12.270;2022-12-20T10:35:36;19.20;30.10
49184;DHT22;35021;49.214;12.270;2022-12-20T10:38:08;19.20;30.00
49184;DHT22;35021;49.214;12.270;2022-12-20T10:40:43;19.20;30.00
49184;DHT22;35021;49.214;12.270;2022-12-20T10:43:41;19.20;30.00
49184;DHT22;35021;49.214;12.270;2022-12-20T10:46:09;19.30;30.00
49184;DHT22;35021;49.214;12.270;2022-12-20T10:48:39;19.40;30.00
49184;DHT22;35021;49.214;12.270;2022-12-20T10:53:51;19.40;30.00
49184;DHT22;35021;49.214;12.270;2022-12-20T10:56:27;19.40;29.90
49184;DHT22;35021;49.214;12.270;2022-12-20T10:58:58;19.50;29.90
49184;DHT22;35021;49.214;12.270;2022-12-20T11:01:28;19.50;29.90
49184;DHT22;35021;49.214;12.270;2022-12-20T11:04:00;19.50;29.90
49184;DHT22;35021;49.214;12.270;2022-12-20T11:14:27;19.60;30.00
49184;DHT22;35021;49.214;12.270;2022-12-20T11:17:06;19.60;30.00
49184;DHT22;35021;49.214;12.270;2022-12-20T11:20:01;19.70;30.00
49184;DHT22;35021;49.214;12.270;2022-12-20T11:25:30;19.70;29.90
49184;DHT22;35021;49.214;12.270;2022-12-20T11:28:13;19.80;29.90
49184;DHT22;35021;49.214;12.270;2022-12-20T11:36:05;19.90;29.80
49184;DHT22;35021;49.214;12.270;2022-12-20T11:38:41;19.90;29.70
49184;DHT22;35021;49.214;12.270;2022-12-20T11:47:17;20.00;29.70
49184;DHT22;35021;49.214;12.270;2022-12-20T11:52:57;20.10;29.70
49184;DHT22;35021;49.214;12.270;2022-12-20T11:55:27;20.10;29.70
49184;DHT22;35021;49.214;12.270;2022-12-20T11:58:28;20.10;29.70
49184;DHT22;35021;49.214;12.270;2022-12-20T12:01:09;20.10;29.70
49184;DHT22;35021;49.214;12.270;2022-12-20T12:03:42;20.10;29.70
49184;DHT22;35021;49.214;12.270;2022-12-20T12:08:54;20.10;29.80
49184;DHT22;35021;49.214;12.270;2022-12-20T12:11:23;20.10;29.80
49184;DHT22;35021;49.214;12.270;2022-12-20T12:17:35;20.00;29.80
49184;DHT22;35021;49.214;12.270;2022-12-20T12:23:25;20.00;29.90
49184;DHT22;35021;49.214;12.270;2022-12-20T12:25:54;19.90;30.00
49184;DHT22;35021;49.214;12.270;2022-12-20T12:28:21;19.90;30.00
49184;DHT22;35021;49.214;12.270;2022-12-20T12:31:12;19.90;30.00
49184;DHT22;35021;49.214;12.270;2022-12-20T12:42:06;20.00;30.00
49184;DHT22;35021;49.214;12.270;2022-12-20T12:44:56;20.10;30.00
49184;DHT22;35021;49.214;12.270;2022-12-20T12:52:58;20.10;30.10
49184;DHT22;35021;49.214;12.270;2022-12-20T12:55:44;20.20;30.10
49184;DHT22;35021;49.214;12.270;2022-12-20T12:58:32;20.20;30.10
49184;DHT22;35021;49.214;12.270;2022-12-20T13:01:07;20.20;30.00
49184;DHT22;35021;49.214;12.270;2022-12-20T13:11:44;20.20;30.20
49184;DHT22;35021;49.214;12.270;2022-12-20T13:16:44;20.10;30.10
49184;DHT22;35021;49.214;12.270;2022-12-20T13:19:36;20.10;30.20
49184;DHT22;35021;49.214;12.270;2022-12-20T13:22:20;20.00;30.20
49184;DHT22;35021;49.214;12.270;2022-12-20T13:24:58;20.00;30.30
49184;DHT22;35021;49.214;12.270;2022-12-20T13:27:34;19.90;30.20
49184;DHT22;35021;49.214;12.270;2022-12-20T13:30:22;19.80;30.30
49184;DHT22;35021;49.214;12.270;2022-12-20T13:38:00;19.80;30.30
49184;DHT22;35021;49.214;12.270;2022-12-20T13:40:43;19.80;30.20
49184;DHT22;35021;49.214;12.270;2022-12-20T13:45:52;19.90;30.30
49184;DHT22;35021;49.214;12.270;2022-12-20T13:48:46;19.90;30.30
49184;DHT22;35021;49.214;12.270;2022-12-20T13:51:24;20.00;30.30
49184;DHT22;35021;49.214;12.270;2022-12-20T13:53:55;20.00;30.30
49184;DHT22;35021;49.214;12.270;2022-12-20T13:59:07;20.10;30.40
49184;DHT22;35021;49.214;12.270;2022-12-20T14:01:50;20.10;30.40
49184;DHT22;35021;49.214;12.270;2022-12-20T14:04:19;20.10;30.40
49184;DHT22;35021;49.214;12.270;2022-12-20T14:06:55;20.20;30.40
49184;DHT22;35021;49.214;12.270;2022-12-20T14:09:33;20.10;30.30
49184;DHT22;35021;49.214;12.270;2022-12-20T14:12:12;20.20;30.40
49184;DHT22;35021;49.214;12.270;2022-12-20T14:14:50;20.20;30.40
49184;DHT22;35021;49.214;12.270;2022-12-20T14:17:27;20.20;30.40
49184;DHT22;35021;49.214;12.270;2022-12-20T14:22:52;20.20;30.40
49184;DHT22;35021;49.214;12.270;2022-12-20T14:25:41;20.20;30.40
49184;DHT22;35021;49.214;12.270;2022-12-20T14:28:37;20.20;30.40
49184;DHT22;35021;49.214;12.270;2022-12-20T14:31:03;20.20;30.60
49184;DHT22;35021;49.214;12.270;2022-12-20T14:33:34;20.10;31.30
49184;DHT22;35021;49.214;12.270;2022-12-20T14:38:47;20.10;30.60
49184;DHT22;35021;49.214;12.270;2022-12-20T14:41:37;20.10;30.60
49184;DHT22;35021;49.214;12.270;2022-12-20T14:44:20;20.20;30.60
49184;DHT22;35021;49.214;12.270;2022-12-20T14:46:53;20.20;30.50
49184;DHT22;35021;49.214;12.270;2022-12-20T14:51:52;20.10;30.40
49184;DHT22;35021;49.214;12.270;2022-12-20T14:54:30;20.20;30.50
49184;DHT22;35021;49.214;12.270;2022-12-20T15:10:47;20.20;30.50
49184;DHT22;35021;49.214;12.270;2022-12-20T15:13:16;20.20;30.50
49184;DHT22;35021;49.214;12.270;2022-12-20T15:15:44;20.20;30.50
49184;DHT22;35021;49.214;12.270;2022-12-20T15:18:16;20.20;30.40
49184;DHT22;35021;49.214;12.270;2022-12-20T15:20:44;20.20;30.50
49184;DHT22;35021;49.214;12.270;2022-12-20T15:23:19;20.20;30.50
49184;DHT22;35021;49.214;12.270;2022-12-20T15:25:47;20.20;30.50
49184;DHT22;35021;49.214;12.270;2022-12-20T15:28:17;20.20;30.50
49184;DHT22;35021;49.214;12.270;2022-12-20T15:30:46;20.20;30.60
49184;DHT22;35021;49.214;12.270;2022-12-20T15:33:25;20.20;30.60
49184;DHT22;35021;49.214;12.270;2022-12-20T15:35:52;20.10;30.70
49184;DHT22;35021;49.214;12.270;2022-12-20T15:38:24;20.10;30.70
49184;DHT22;35021;49.214;12.270;2022-12-20T15:41:26;20.10;30.80
49184;DHT22;35021;49.214;12.270;2022-12-20T15:43:56;20.10;30.80
49184;DHT22;35021;49.214;12.270;2022-12-20T15:46:23;20.10;30.80
49184;DHT22;35021;49.214;12.270;2022-12-20T15:48:54;20.10;30.80
49184;DHT22;35021;49.214;12.270;2022-12-20T15:51:26;20.10;30.90
49184;DHT22;35021;49.214;12.270;2022-12-20T15:53:54;20.20;30.90
49184;DHT22;35021;49.214;12.270;2022-12-20T15:56:23;20.20;30.90
49184;DHT22;35021;49.214;12.270;2022-12-20T15:58:50;20.20;30.90
49184;DHT22;35021;49.214;12.270;2022-12-20T16:01:22;20.20;30.80
49184;DHT22;35021;49.214;12.270;2022-12-20T16:03:49;20.20;30.90
49184;DHT22;35021;49.214;12.270;2022-12-20T16:06:16;20.20;30.80
49184;DHT22;35021;49.214;12.270;2022-12-20T16:08:44;20.20;30.80
49184;DHT22;35021;49.214;12.270;2022-12-20T16:11:28;20.20;30.80
49184;DHT22;35021;49.214;12.270;2022-12-20T16:13:57;20.20;30.80
49184;DHT22;35021;49.214;12.270;2022-12-20T16:16:29;20.30;30.80
49184;DHT22;35021;49.214;12.270;2022-12-20T16:18:56;20.20;30.80
49184;DHT22;35021;49.214;12.270;2022-12-20T16:21:32;20.30;30.80
49184;DHT22;35021;49.214;12.270;2022-12-20T16:23:59;20.30;30.80
49184;DHT22;35021;49.214;12.270;2022-12-20T16:26:26;20.20;30.80
49184;DHT22;35021;49.214;12.270;2022-12-20T16:28:54;20.20;30.80
49184;DHT22;35021;49.214;12.270;2022-12-20T16:33:49;20.20;30.90
49184;DHT22;35021;49.214;12.270;2022-12-20T16:36:16;20.10;30.90
49184;DHT22;35021;49.214;12.270;2022-12-20T16:38:42;20.10;31.00
49184;DHT22;35021;49.214;12.270;2022-12-20T16:41:28;20.10;31.10
49184;DHT22;35021;49.214;12.270;2022-12-20T16:43:57;20.00;31.10
49184;DHT22;35021;49.214;12.270;2022-12-20T16:46:26;19.90;31.10
49184;DHT22;35021;49.214;12.270;2022-12-20T16:48:55;19.90;31.20
49184;DHT22;35021;49.214;12.270;2022-12-20T16:51:42;19.90;31.20
49184;DHT22;35021;49.214;12.270;2022-12-20T16:54:19;19.90;31.20
49184;DHT22;35021;49.214;12.270;2022-12-20T16:56:48;19.90;31.20
49184;DHT22;35021;49.214;12.270;2022-12-20T16:59:21;19.90;31.20
49184;DHT22;35021;49.214;12.270;2022-12-20T17:01:51;19.90;31.10
49184;DHT22;35021;49.214;12.270;2022-12-20T17:04:21;20.00;31.10
49184;DHT22;35021;49.214;12.270;2022-12-20T17:06:48;20.00;31.10
49184;DHT22;35021;49.214;12.270;2022-12-20T17:09:17;20.10;31.10
49184;DHT22;35021;49.214;12.270;2022-12-20T17:11:45;20.10;31.00
49184;DHT22;35021;49.214;12.270;2022-12-20T17:14:12;20.10;31.00
49184;DHT22;35021;49.214;12.270;2022-12-20T17:16:40;20.10;30.90
49184;DHT22;35021;49.214;12.270;2022-12-20T17:19:08;20.20;31.00
49184;DHT22;35021;49.214;12.270;2022-12-20T17:21:38;20.20;30.90
49184;DHT22;35021;49.214;12.270;2022-12-20T17:24:24;20.20;30.90
49184;DHT22;35021;49.214;12.270;2022-12-20T17:26:53;20.20;30.90
49184;DHT22;35021;49.214;12.270;2022-12-20T17:29:21;20.20;30.90
49184;DHT22;35021;49.214;12.270;2022-12-20T17:31:48;20.20;30.90
49184;DHT22;35021;49.214;12.270;2022-12-20T17:34:16;20.20;30.90
49184;DHT22;35021;49.214;12.270;2022-12-20T17:36:47;20.20;31.00
49184;DHT22;35021;49.214;12.270;2022-12-20T17:39:14;20.20;31.00
49184;DHT22;35021;49.214;12.270;2022-12-20T17:41:43;20.20;31.00
49184;DHT22;35021;49.214;12.270;2022-12-20T17:44:21;20.20;31.00
49184;DHT22;35021;49.214;12.270;2022-12-20T17:46:50;20.10;31.70